Time;durP1;ratioP1;P1;durP2;ratioP2;P2;SDS_P1;SDS_P2;PMS_P1;PMS_P2;Temp;Humidity;BMP_temperature;BMP_pressure;BME280_temperature;BME280_humidity;BME280_pressure;Samples;Min_cycle;Max_cycle;Signal;HPM_P1;HPM_P2
2022/11/20 00:00:23;;;;;;;1999.90;999.90;;;;;;;-3.85;93.92;100340.06;5021099;28;20038;-75
2022/11/20 00:02:48;;;;;;;1999.90;999.90;;;;;;;-3.90;94.17;100338.03;5023285;28;20045;-74
2022/11/20 00:05:14;;;;;;;1999.90;999.90;;;;;;;-3.90;94.11;100338.03;5006173;28;20044;-74
2022/11/20 00:07:39;;;;;;;1999.90;999.90;;;;;;;-3.91;94.27;100334.56;5007315;28;20045;-74
2022/11/20 00:10:05;;;;;;;1999.90;999.90;;;;;;;-3.95;94.15;100340.41;5023277;28;20033;-74
2022/11/20 00:12:31;;;;;;;1999.90;999.90;;;;;;;-3.99;93.93;100336.78;5021224;28;20515;-74
2022/11/20 00:14:56;;;;;;;1999.90;999.90;;;;;;;-4.02;94.20;100336.63;5003484;28;20042;-74
2022/11/20 00:17:21;;;;;;;1999.90;999.90;;;;;;;-4.05;94.52;100323.59;5018829;28;20044;-74
2022/11/20 00:19:46;;;;;;;1999.90;999.90;;;;;;;-4.05;94.61;100325.31;5023186;28;20033;-74
2022/11/20 00:22:12;;;;;;;1999.90;999.90;;;;;;;-4.11;94.56;100333.63;5034866;23;20048;-75
2022/11/20 00:24:37;;;;;;;1999.90;999.90;;;;;;;-4.13;94.75;100331.78;5027639;28;20037;-75
2022/11/20 00:27:02;;;;;;;1999.90;999.90;;;;;;;-4.14;95.78;100325.72;5023926;28;20045;-75
2022/11/20 00:29:28;;;;;;;1999.90;999.90;;;;;;;-4.15;96.13;100323.97;5021618;28;20034;-75
2022/11/20 00:31:53;;;;;;;1999.90;999.90;;;;;;;-4.10;96.30;100332.81;5023567;28;20041;-75
2022/11/20 00:34:18;;;;;;;1999.90;999.90;;;;;;;-4.09;96.18;100333.69;5027614;28;20048;-75
2022/11/20 00:36:44;;;;;;;1999.90;999.90;;;;;;;-4.07;96.29;100334.66;5018990;28;20030;-75
2022/11/20 00:39:09;;;;;;;1999.90;999.90;;;;;;;-4.11;96.39;100338.78;5019886;28;20068;-75
2022/11/20 00:41:34;;;;;;;1999.90;999.90;;;;;;;-4.18;95.77;100339.28;5026015;28;20037;-75
2022/11/20 00:44:00;;;;;;;1999.90;999.90;;;;;;;-4.28;95.93;100342.19;5021027;28;20125;-75
2022/11/20 00:46:27;;;;;;;1999.90;999.90;;;;;;;-4.30;96.52;100348.97;5025363;28;20049;-75
2022/11/20 00:48:52;;;;;;;1999.90;999.90;;;;;;;-4.34;96.65;100347.06;5020719;28;20045;-74
2022/11/20 00:51:20;;;;;;;1999.90;999.90;;;;;;;-4.36;97.37;100338.34;5022719;28;20124;-74
2022/11/20 00:53:46;;;;;;;1999.90;999.90;;;;;;;-4.36;97.03;100343.50;5020759;28;20060;-75
2022/11/20 00:56:13;;;;;;;1999.90;999.90;;;;;;;-4.38;96.64;100339.97;5026565;28;20504;-75
2022/11/20 00:58:41;;;;;;;1999.90;999.90;;;;;;;-4.43;96.58;100338.06;5033192;28;20213;-75
2022/11/20 01:01:07;;;;;;;1999.90;999.90;;;;;;;-4.47;97.07;100340.41;5020055;28;20644;-74
2022/11/20 01:03:34;;;;;;;1999.90;999.90;;;;;;;-4.53;96.46;100345.22;5022632;28;20109;-74
2022/11/20 01:06:01;;;;;;;1999.90;999.90;;;;;;;-4.54;97.38;100343.47;5018598;28;20030;-74
2022/11/20 01:08:30;;;;;;;1999.90;999.90;;;;;;;-4.53;98.17;100340.06;5020023;28;20041;-75
2022/11/20 01:10:59;;;;;;;1999.90;999.90;;;;;;;-4.52;97.73;100331.56;5023321;28;20044;-75
2022/11/20 01:13:37;;;;;;;1999.90;999.90;;;;;;;-4.58;97.71;100337.28;5019320;28;20053;-75
2022/11/20 01:16:14;;;;;;;1999.90;999.90;;;;;;;-4.57;96.67;100339.03;5020492;28;20111;-75
2022/11/20 01:18:42;;;;;;;1999.90;999.90;;;;;;;-4.62;97.15;100338.78;5019435;28;20065;-75
2022/11/20 01:21:10;;;;;;;1999.90;999.90;;;;;;;-4.63;97.63;100349.03;5021442;28;20041;-75
2022/11/20 01:23:38;;;;;;;1999.90;999.90;;;;;;;-4.66;97.76;100348.88;5019485;28;20120;-74
2022/11/20 01:26:06;;;;;;;1999.90;999.90;;;;;;;-4.63;98.24;100351.59;5027020;28;20034;-76
2022/11/20 01:28:32;;;;;;;1999.90;999.90;;;;;;;-4.65;98.47;100343.78;5027339;28;20037;-75
2022/11/20 01:30:57;;;;;;;1999.90;999.90;;;;;;;-4.71;98.40;100353.78;5028645;28;20034;-75
2022/11/20 01:33:23;;;;;;;1999.90;999.90;;;;;;;-4.76;98.54;100349.22;5028436;28;20041;-74
2022/11/20 01:35:48;;;;;;;1999.90;999.90;;;;;;;-4.83;98.53;100355.72;5023933;28;20729;-75
2022/11/20 01:38:15;;;;;;;1999.90;999.90;;;;;;;-4.87;99.08;100354.69;5025306;28;20476;-75
2022/11/20 01:40:41;;;;;;;1999.90;999.90;;;;;;;-4.87;98.99;100356.38;5026253;28;20049;-74
2022/11/20 01:43:22;;;;;;;1999.90;999.90;;;;;;;-4.84;98.24;100353.94;5026320;28;20037;-75
2022/11/20 01:46:16;;;;;;;1999.90;999.90;;;;;;;-4.96;98.24;100359.31;5023023;28;20064;-74
2022/11/20 01:48:57;;;;;;;1999.90;999.90;;;;;;;-5.11;97.44;100353.34;5030496;28;20102;-75
2022/11/20 01:51:31;;;;;;;1999.90;999.90;;;;;;;-5.15;98.35;100351.44;5016322;28;20542;-74
2022/11/20 01:54:02;;;;;;;1999.90;999.90;;;;;;;-5.13;99.25;100344.69;5031008;28;20033;-74
2022/11/20 01:56:30;;;;;;;1999.90;999.90;;;;;;;-5.13;99.80;100350.72;5028975;28;20026;-74
2022/11/20 01:59:00;;;;;;;1999.90;999.90;;;;;;;-5.13;99.95;100353.28;5027446;28;20035;-74
2022/11/20 02:01:26;;;;;;;1999.90;999.90;;;;;;;-5.14;100.00;100350.63;5030479;28;20033;-74
2022/11/20 02:03:52;;;;;;;1999.90;999.90;;;;;;;-5.19;100.00;100346.91;5028674;28;20036;-74
2022/11/20 02:06:29;;;;;;;1999.90;999.90;;;;;;;-5.18;100.00;100351.28;5010827;28;20057;-74
2022/11/20 02:08:55;;;;;;;1999.90;999.90;;;;;;;-5.19;100.00;100349.50;5032450;28;20472;-74
2022/11/20 02:11:20;;;;;;;1999.90;999.90;;;;;;;-5.20;100.00;100353.75;5033159;28;20071;-74
2022/11/20 02:13:46;;;;;;;1999.90;999.90;;;;;;;-5.24;100.00;100349.28;5028418;28;20107;-75
2022/11/20 02:16:19;;;;;;;1999.90;999.90;;;;;;;-5.35;99.24;100351.22;5027230;28;20069;-74
2022/11/20 02:18:46;;;;;;;1999.90;999.90;;;;;;;-5.44;99.70;100342.16;5026046;28;20484;-74
2022/11/20 02:21:19;;;;;;;1999.90;999.90;;;;;;;-5.42;100.00;100343.09;5022112;28;20100;-74
2022/11/20 02:24:07;;;;;;;1999.90;999.90;;;;;;;-5.43;100.00;100334.50;5023000;28;20495;-75
2022/11/20 02:26:40;;;;;;;1999.90;999.90;;;;;;;-5.42;100.00;100336.28;5025762;28;20064;-74
2022/11/20 02:29:05;;;;;;;1999.90;999.90;;;;;;;-5.41;100.00;100338.03;5022367;28;20471;-74
2022/11/20 02:31:37;;;;;;;1999.90;999.90;;;;;;;-5.36;100.00;100328.91;5025166;28;20125;-74
2022/11/20 02:34:02;;;;;;;1999.90;999.90;;;;;;;-5.40;100.00;100323.50;5023166;28;20065;-74
2022/11/20 02:36:30;;;;;;;1999.90;999.90;;;;;;;-5.47;99.54;100324.88;5022786;28;20034;-75
2022/11/20 02:38:56;;;;;;;1999.90;999.90;;;;;;;-5.60;99.95;100314.72;5021339;28;20033;-75
2022/11/20 02:41:22;;;;;;;1999.90;999.90;;;;;;;-5.62;100.00;100318.88;5028494;28;20556;-74
2022/11/20 02:43:47;;;;;;;1999.90;999.90;;;;;;;-5.62;100.00;100313.75;5021577;28;20048;-74
2022/11/20 02:46:12;;;;;;;1999.90;999.90;;;;;;;-5.57;100.00;100318.31;5024074;28;20068;-75
2022/11/20 02:48:37;;;;;;;1999.90;999.90;;;;;;;-5.63;100.00;100315.44;5022938;28;20045;-74
2022/11/20 02:51:03;;;;;;;1999.90;999.90;;;;;;;-5.62;100.00;100313.75;5023102;28;20488;-74
2022/11/20 02:53:28;;;;;;;1999.90;999.90;;;;;;;-5.60;100.00;100307.88;5020479;28;20550;-75
2022/11/20 02:55:54;;;;;;;1999.90;999.90;;;;;;;-5.58;100.00;100319.13;5029062;28;20048;-74
2022/11/20 02:58:19;;;;;;;1999.90;999.90;;;;;;;-5.56;100.00;100314.94;5022175;28;20044;-75
2022/11/20 03:00:44;;;;;;;1999.90;999.90;;;;;;;-5.54;100.00;100305.63;4990420;28;20041;-75
2022/11/20 03:03:10;;;;;;;1999.90;999.90;;;;;;;-5.53;100.00;100307.41;5022384;28;20037;-74
2022/11/20 03:05:35;;;;;;;1999.90;999.90;;;;;;;-5.50;100.00;100306.69;5022956;28;20040;-74
2022/11/20 03:08:00;;;;;;;1999.90;999.90;;;;;;;-5.48;100.00;100305.06;5020755;28;20029;-75
2022/11/20 03:10:26;;;;;;;1999.90;999.90;;;;;;;-5.45;100.00;100307.81;5023870;28;20038;-74
2022/11/20 03:12:55;;;;;;;1999.90;999.90;;;;;;;-5.41;100.00;100303.72;5021475;28;20047;-75
2022/11/20 03:15:22;;;;;;;1999.90;999.90;;;;;;;-5.40;100.00;100305.50;5021334;28;20038;-75
2022/11/20 03:17:47;;;;;;;1999.90;999.90;;;;;;;-5.40;100.00;100298.66;5023084;28;20032;-75
2022/11/20 03:20:12;;;;;;;1999.90;999.90;;;;;;;-5.39;100.00;100305.59;5022783;28;20117;-74
2022/11/20 03:22:38;;;;;;;1999.90;999.90;;;;;;;-5.37;100.00;100301.41;5021744;28;20041;-75
2022/11/20 03:25:04;;;;;;;1999.90;999.90;;;;;;;-5.36;100.00;100303.16;5017702;28;20034;-75
2022/11/20 03:27:33;;;;;;;1999.90;999.90;;;;;;;-5.31;100.00;100303.44;5023891;28;20037;-75
2022/11/20 03:29:58;;;;;;;1999.90;999.90;;;;;;;-5.28;100.00;100301.00;5025945;28;20065;-74
2022/11/20 03:32:23;;;;;;;1999.90;999.90;;;;;;;-5.22;100.00;100298.75;5013217;28;20550;-75
2022/11/20 03:34:49;;;;;;;1999.90;999.90;;;;;;;-5.21;100.00;100292.81;5022005;28;20049;-75
2022/11/20 03:37:14;;;;;;;1999.90;999.90;;;;;;;-5.19;100.00;100292.88;5021760;28;20104;-74
2022/11/20 03:39:39;;;;;;;1999.90;999.90;;;;;;;-5.21;100.00;100297.06;5024602;28;20069;-75
2022/11/20 03:42:44;;;;;;;1999.90;999.90;;;;;;;-5.18;100.00;100290.41;5005918;28;20488;-75
2022/11/20 03:44:50;;;;;;;1999.90;999.90;;;;;;;-5.13;100.00;100288.97;5027346;28;20551;-74
2022/11/20 03:47:15;;;;;;;1999.90;999.90;;;;;;;-5.15;100.00;100293.13;5019643;28;20125;-75
2022/11/20 03:49:41;;;;;;;1999.90;999.90;;;;;;;-5.15;100.00;100277.69;5023372;28;20077;-75
2022/11/20 03:52:06;;;;;;;1999.90;999.90;;;;;;;-5.14;100.00;100281.16;5029209;28;20037;-75
2022/11/20 03:54:31;;;;;;;1999.90;999.90;;;;;;;-5.12;100.00;100276.97;5030504;28;20036;-74
2022/11/20 03:56:57;;;;;;;1999.90;999.90;;;;;;;-5.14;100.00;100276.88;5027249;28;20037;-74
2022/11/20 03:59:22;;;;;;;1999.90;999.90;;;;;;;-5.18;100.00;100272.41;5024158;28;20048;-75
2022/11/20 04:01:47;;;;;;;1999.90;999.90;;;;;;;-5.20;100.00;100271.44;5020268;28;20030;-75
2022/11/20 04:04:13;;;;;;;1999.90;999.90;;;;;;;-5.19;100.00;100272.31;5022349;28;20038;-75
2022/11/20 04:06:38;;;;;;;1999.90;999.90;;;;;;;-5.15;100.00;100274.25;5020502;28;20026;-75
2022/11/20 04:09:05;;;;;;;1999.90;999.90;;;;;;;-5.16;100.00;100267.31;5021413;28;20469;-74
2022/11/20 04:11:33;;;;;;;1999.90;999.90;;;;;;;-5.19;100.00;100264.59;5021327;28;20500;-75
2022/11/20 04:14:01;;;;;;;1999.90;999.90;;;;;;;-5.22;100.00;100269.56;5022992;28;20087;-75
2022/11/20 04:16:29;;;;;;;1999.90;999.90;;;;;;;-5.28;99.87;100267.56;5023050;28;20124;-75
2022/11/20 04:18:57;;;;;;;1999.90;999.90;;;;;;;-5.31;100.00;100265.72;5020798;28;20555;-74
2022/11/20 04:21:23;;;;;;;1999.90;999.90;;;;;;;-5.30;100.00;100262.31;5021342;28;20535;-74
2022/11/20 04:23:49;;;;;;;1999.90;999.90;;;;;;;-5.27;100.00;100266.75;5021006;28;20488;-75
2022/11/20 04:26:14;;;;;;;1999.90;999.90;;;;;;;-5.28;100.00;100273.59;5019161;28;20072;-74
2022/11/20 04:28:40;;;;;;;1999.90;999.90;;;;;;;-5.36;99.86;100266.28;5023081;28;20077;-74
2022/11/20 04:31:08;;;;;;;1999.90;999.90;;;;;;;-5.37;99.60;100267.97;5023114;28;20041;-75
2022/11/20 04:33:34;;;;;;;1999.90;999.90;;;;;;;-5.34;100.00;100264.69;5021193;28;20038;-74
2022/11/20 04:36:19;;;;;;;1999.90;999.90;;;;;;;-5.29;100.00;100255.53;5021461;28;20053;-75
2022/11/20 04:38:45;;;;;;;1999.90;999.90;;;;;;;-5.29;100.00;100260.66;5021777;28;20657;-75
2022/11/20 04:41:17;;;;;;;1999.90;999.90;;;;;;;-5.33;99.42;100254.47;5020705;28;20034;-75
2022/11/20 04:43:46;;;;;;;1999.90;999.90;;;;;;;-5.33;100.00;100262.19;5022950;28;20098;-74
2022/11/20 04:46:12;;;;;;;1999.90;999.90;;;;;;;-5.36;100.00;100262.03;5020346;28;20073;-75
2022/11/20 04:48:37;;;;;;;1999.90;999.90;;;;;;;-5.40;100.00;100275.50;5023353;28;20069;-75
2022/11/20 04:51:04;;;;;;;1999.90;999.90;;;;;;;-5.43;100.00;100274.47;5003166;28;20045;-75
2022/11/20 04:53:29;;;;;;;1999.90;999.90;;;;;;;-5.47;99.85;100270.84;5018935;28;20038;-74
2022/11/20 04:56:03;;;;;;;1999.90;999.90;;;;;;;-5.44;100.00;100271.03;5022445;28;20052;-75
2022/11/20 04:58:29;;;;;;;1999.90;999.90;;;;;;;-5.47;100.00;100265.72;5022769;28;20039;-74
2022/11/20 05:01:07;;;;;;;1999.90;999.90;;;;;;;-5.44;100.00;100265.00;5027785;28;20087;-74
2022/11/20 05:03:33;;;;;;;1999.90;999.90;;;;;;;-5.42;100.00;100269.41;5025378;28;20069;-74
2022/11/20 05:06:03;;;;;;;1999.90;999.90;;;;;;;-5.42;100.00;100261.69;5026261;28;20120;-74
2022/11/20 05:08:29;;;;;;;1999.90;999.90;;;;;;;-5.41;100.00;100260.88;5027097;28;20038;-74
2022/11/20 05:11:00;;;;;;;1999.90;999.90;;;;;;;-5.39;100.00;100256.72;5007747;28;20080;-74
2022/11/20 05:13:27;;;;;;;1999.90;999.90;;;;;;;-5.40;100.00;100256.63;5023951;28;20040;-74
2022/11/20 05:15:52;;;;;;;1999.90;999.90;;;;;;;-5.42;100.00;100256.56;5029008;28;20080;-74
2022/11/20 05:18:17;;;;;;;1999.90;999.90;;;;;;;-5.40;100.00;100260.06;5028010;28;20057;-74
2022/11/20 05:20:43;;;;;;;1999.90;999.90;;;;;;;-5.40;100.00;100256.63;5033208;28;20068;-74
2022/11/20 05:23:08;;;;;;;1999.90;999.90;;;;;;;-5.42;100.00;100259.13;5022494;28;20385;-75
2022/11/20 05:25:33;;;;;;;1999.90;999.90;;;;;;;-5.44;100.00;100250.44;5022465;28;20408;-74
2022/11/20 05:27:59;;;;;;;1999.90;999.90;;;;;;;-5.45;100.00;100251.22;5023479;28;20045;-74
2022/11/20 05:30:24;;;;;;;1999.90;999.90;;;;;;;-5.48;100.00;100253.63;5007721;28;20030;-74
2022/11/20 05:32:49;;;;;;;1999.90;999.90;;;;;;;-5.49;100.00;100251.00;5026262;28;20041;-74
2022/11/20 05:35:15;;;;;;;1999.90;999.90;;;;;;;-5.49;100.00;100251.00;5025152;28;20041;-74
2022/11/20 05:37:40;;;;;;;1999.90;999.90;;;;;;;-5.51;100.00;100253.47;5022702;28;20033;-74
2022/11/20 05:40:06;;;;;;;1999.90;999.90;;;;;;;-5.52;99.85;100257.75;5022884;28;20046;-74
2022/11/20 05:42:32;;;;;;;1999.90;999.90;;;;;;;-5.55;100.00;100255.03;5031238;28;20068;-74
2022/11/20 05:45:03;;;;;;;1999.90;999.90;;;;;;;-5.61;100.00;100251.22;5019981;28;20061;-75
2022/11/20 05:47:33;;;;;;;1999.90;999.90;;;;;;;-5.60;100.00;100245.28;5025296;28;20033;-75
2022/11/20 05:49:58;;;;;;;1999.90;999.90;;;;;;;-5.60;100.00;100242.72;5022836;28;20034;-75
2022/11/20 05:52:24;;;;;;;1999.90;999.90;;;;;;;-5.57;100.00;100241.19;5024692;28;20037;-75
2022/11/20 05:54:49;;;;;;;1999.90;999.90;;;;;;;-5.54;100.00;100237.91;5029845;28;20045;-75
2022/11/20 05:57:15;;;;;;;1999.90;999.90;;;;;;;-5.55;100.00;100241.28;5023670;28;20404;-75
2022/11/20 05:59:40;;;;;;;1999.90;999.90;;;;;;;-5.59;100.00;100239.34;5026441;28;20480;-75
2022/11/20 06:02:06;;;;;;;1999.90;999.90;;;;;;;-5.62;99.78;100224.63;5029112;28;20109;-74
2022/11/20 06:04:31;;;;;;;1999.90;999.90;;;;;;;-5.65;99.72;100229.63;5030170;28;20040;-74
2022/11/20 06:06:56;;;;;;;1999.90;999.90;;;;;;;-5.65;100.00;100228.75;5019373;28;20022;-75
2022/11/20 06:09:21;;;;;;;1999.90;999.90;;;;;;;-5.68;100.00;100228.56;5025913;28;20045;-74
2022/11/20 06:11:47;;;;;;;1999.90;999.90;;;;;;;-5.70;99.73;100228.47;5021754;28;20037;-74
2022/11/20 06:14:12;;;;;;;1999.90;999.90;;;;;;;-5.82;100.00;100231.25;5023743;28;20046;-74
2022/11/20 06:16:37;;;;;;;1999.90;999.90;;;;;;;-5.89;100.00;100234.31;5027360;28;20087;-74
2022/11/20 06:19:03;;;;;;;1999.90;999.90;;;;;;;-5.87;100.00;100235.25;5028989;28;20050;-74
2022/11/20 06:21:28;;;;;;;1999.90;999.90;;;;;;;-5.87;100.00;100224.97;5026118;28;20063;-74
2022/11/20 06:23:53;;;;;;;1999.90;999.90;;;;;;;-5.85;100.00;100231.09;5019693;28;20049;-74
2022/11/20 06:26:22;;;;;;;1999.90;999.90;;;;;;;-5.81;100.00;100232.16;5022347;28;20030;-75
2022/11/20 06:28:48;;;;;;;1999.90;999.90;;;;;;;-5.78;100.00;100234.91;5043091;22;20040;-76
2022/11/20 06:31:16;;;;;;;1999.90;999.90;;;;;;;-5.76;100.00;100231.63;5030434;28;20041;-76
2022/11/20 06:33:42;;;;;;;1999.90;999.90;;;;;;;-5.75;100.00;100230.78;5025763;28;20083;-76
2022/11/20 06:36:10;;;;;;;1999.90;999.90;;;;;;;-5.72;100.00;100227.50;5022489;28;20040;-76
2022/11/20 06:38:35;;;;;;;1999.90;999.90;;;;;;;-5.65;100.00;100233.88;5025250;28;20046;-76
2022/11/20 06:41:01;;;;;;;1999.90;999.90;;;;;;;-5.69;100.00;100229.34;5026904;28;20087;-76
2022/11/20 06:43:29;;;;;;;1999.90;999.90;;;;;;;-5.68;100.00;100241.44;5029446;28;20033;-76
2022/11/20 06:45:55;;;;;;;1999.90;999.90;;;;;;;-5.69;100.00;100226.78;5033080;28;20044;-77
2022/11/20 06:48:23;;;;;;;1999.90;999.90;;;;;;;-5.64;100.00;100231.38;5021626;28;20038;-76
2022/11/20 06:50:48;;;;;;;1999.90;999.90;;;;;;;-5.62;100.00;100222.06;5025371;28;20033;-76
2022/11/20 06:53:13;;;;;;;1999.90;999.90;;;;;;;-5.59;100.00;100226.47;5023663;28;20456;-76
2022/11/20 06:55:43;;;;;;;1999.90;999.90;;;;;;;-5.55;99.95;100225.84;5023286;28;20034;-76
2022/11/20 06:58:09;;;;;;;1999.90;999.90;;;;;;;-5.52;100.00;100215.72;5027563;28;20079;-76
2022/11/20 07:00:34;;;;;;;1999.90;999.90;;;;;;;-5.51;99.66;100222.63;5037830;28;20045;-76
2022/11/20 07:03:03;;;;;;;1999.90;999.90;;;;;;;-5.45;100.00;100222.94;5033827;28;20454;-76
2022/11/20 07:05:28;;;;;;;1999.90;999.90;;;;;;;-5.45;99.74;100227.19;5026838;28;20037;-76
2022/11/20 07:07:56;;;;;;;1999.90;999.90;;;;;;;-5.40;99.24;100226.63;5024666;28;20044;-76
2022/11/20 07:10:21;;;;;;;1999.90;999.90;;;;;;;-5.37;98.88;100231.97;5028457;28;20037;-75
2022/11/20 07:12:53;;;;;;;1999.90;999.90;;;;;;;-5.28;99.08;100226.41;5025393;28;20396;-75
2022/11/20 07:15:21;;;;;;;1999.90;999.90;;;;;;;-5.20;99.57;100234.53;5028786;28;20128;-76
2022/11/20 07:17:46;;;;;;;1999.90;999.90;;;;;;;-5.13;98.45;100234.06;5024915;28;20504;-76
2022/11/20 07:20:12;;;;;;;1999.90;999.90;;;;;;;-5.07;99.33;100227.50;5025939;28;20037;-76
2022/11/20 07:22:38;;;;;;;1999.90;999.90;;;;;;;-5.02;98.81;100225.19;5030442;28;20031;-76
2022/11/20 07:25:04;;;;;;;1999.90;999.90;;;;;;;-4.94;99.06;100221.31;5043661;28;20490;-75
2022/11/20 07:27:29;;;;;;;1999.90;999.90;;;;;;;-4.83;97.79;100226.13;5043026;28;20547;-75
2022/11/20 07:29:55;;;;;;;1999.90;999.90;;;;;;;-4.81;97.60;100225.38;5029526;28;20033;-76
2022/11/20 07:32:21;;;;;;;1999.90;999.90;;;;;;;-4.81;98.14;100217.66;5027425;28;20116;-76
2022/11/20 07:34:46;;;;;;;1999.90;999.90;;;;;;;-4.78;97.79;100224.66;5011124;28;20032;-75
2022/11/20 07:37:12;;;;;;;1999.90;999.90;;;;;;;-4.70;98.37;100219.06;5027071;28;20465;-75
2022/11/20 07:39:37;;;;;;;1999.90;999.90;;;;;;;-4.61;97.69;100223.81;5026934;28;20037;-76
2022/11/20 07:42:02;;;;;;;1999.90;999.90;;;;;;;-4.52;97.04;100224.25;5024615;28;20041;-76
2022/11/20 07:44:28;;;;;;;1999.90;999.90;;;;;;;-4.46;96.17;100221.97;5025341;28;20036;-75
2022/11/20 07:46:53;;;;;;;1999.90;999.90;;;;;;;-4.35;95.61;100221.59;5027415;28;20037;-76
2022/11/20 07:49:18;;;;;;;1999.90;999.90;;;;;;;-4.29;96.13;100229.66;5025274;28;20040;-75
2022/11/20 07:51:44;;;;;;;1999.90;999.90;;;;;;;-4.23;95.28;100224.78;5028083;28;20061;-76
2022/11/20 07:54:09;;;;;;;1999.90;999.90;;;;;;;-4.13;95.72;100213.22;5027354;28;20064;-76
2022/11/20 07:56:34;;;;;;;1999.90;999.90;;;;;;;-4.03;94.77;100211.16;5025181;28;20121;-75
2022/11/20 07:58:59;;;;;;;1999.90;999.90;;;;;;;-3.95;94.56;100211.50;5026013;28;20041;-76
2022/11/20 08:01:25;;;;;;;1999.90;999.90;;;;;;;-3.97;93.17;100211.44;5026391;28;20045;-76
2022/11/20 08:03:50;;;;;;;1999.90;999.90;;;;;;;-3.91;94.20;100209.94;5026068;28;20037;-76
2022/11/20 08:06:15;;;;;;;1999.90;999.90;;;;;;;-3.80;94.22;100208.75;5024361;28;20448;-76
2022/11/20 08:08:41;;;;;;;1999.90;999.90;;;;;;;-3.73;92.92;100208.22;5024623;28;20449;-76
2022/11/20 08:16:34;;;;;;;1999.90;999.90;;;;;;;-3.59;91.33;100199.44;5022729;28;20712;-76
2022/11/20 08:18:59;;;;;;;1999.90;999.90;;;;;;;-3.53;90.97;100199.69;5025633;28;20084;-76
2022/11/20 08:21:25;;;;;;;1999.90;999.90;;;;;;;-3.52;90.40;100210.88;5026084;28;20036;-75
2022/11/20 08:23:50;;;;;;;1999.90;999.90;;;;;;;-3.60;91.63;100202.78;5023968;28;20041;-76
2022/11/20 08:26:16;;;;;;;1999.90;999.90;;;;;;;-3.44;91.58;100201.78;5025899;28;20045;-76
2022/11/20 08:28:41;;;;;;;1999.90;999.90;;;;;;;-3.35;89.79;100202.22;5028630;28;20024;-75
2022/11/20 08:31:07;;;;;;;1999.90;999.90;;;;;;;-3.30;89.89;100205.00;5024881;28;20061;-75
2022/11/20 08:33:32;;;;;;;1999.90;999.90;;;;;;;-3.19;89.44;100197.72;5024001;28;20481;-76
2022/11/20 08:36:03;;;;;;;1999.90;999.90;;;;;;;-3.19;89.08;100203.75;5020887;28;20145;-75
2022/11/20 08:38:28;;;;;;;1999.90;999.90;;;;;;;-3.09;88.16;100205.06;5024719;28;20037;-76
2022/11/20 08:43:43;;;;;;;1999.90;999.90;;;;;;;-2.96;88.32;100209.00;5024581;28;20496;-76
2022/11/20 08:46:08;;;;;;;1999.90;999.90;;;;;;;-2.93;87.15;100204.88;5031254;28;20037;-76
2022/11/20 08:48:33;;;;;;;1999.90;999.90;;;;;;;-2.88;87.11;100203.38;5025537;28;20499;-76
2022/11/20 08:50:59;;;;;;;1999.90;999.90;;;;;;;-2.80;87.33;100202.78;5029594;28;20037;-76
2022/11/20 08:53:25;;;;;;;1999.90;999.90;;;;;;;-2.69;86.83;100199.00;5024280;28;20079;-76
2022/11/20 08:55:50;;;;;;;1999.90;999.90;;;;;;;-2.63;86.29;100196.66;5025176;28;20033;-76
2022/11/20 08:58:15;;;;;;;1999.90;999.90;;;;;;;-2.50;86.93;100192.88;5026556;28;20034;-76
2022/11/20 09:00:41;;;;;;;1999.90;999.90;;;;;;;-2.41;86.10;100201.00;5023676;28;20052;-76
2022/11/20 09:03:06;;;;;;;1999.90;999.90;;;;;;;-2.37;85.32;100194.25;5026592;28;20037;-76
2022/11/20 09:05:31;;;;;;;1999.90;999.90;;;;;;;-2.34;85.46;100195.25;5027986;28;20045;-76
2022/11/20 09:07:58;;;;;;;1999.90;999.90;;;;;;;-2.24;85.57;100199.09;5027987;28;20029;-76
2022/11/20 09:10:23;;;;;;;1999.90;999.90;;;;;;;-2.12;85.90;100201.25;5025218;28;20148;-76
2022/11/20 09:12:49;;;;;;;1999.90;999.90;;;;;;;-2.04;85.16;100197.28;5026609;28;20128;-77
2022/11/20 09:15:14;;;;;;;1999.90;999.90;;;;;;;-1.96;85.75;100190.72;5027145;28;20045;-76
2022/11/20 09:17:39;;;;;;;1999.90;999.90;;;;;;;-1.88;85.34;100186.72;5025542;28;20442;-76
2022/11/20 09:20:05;;;;;;;1999.90;999.90;;;;;;;-1.83;85.49;100174.84;5025263;28;20124;-77
2022/11/20 09:22:30;;;;;;;1999.90;999.90;;;;;;;-1.74;86.11;100170.81;5027455;28;20040;-76
2022/11/20 09:24:56;;;;;;;1999.90;999.90;;;;;;;-1.69;85.54;100172.75;5008147;28;20112;-77
2022/11/20 09:27:21;;;;;;;1999.90;999.90;;;;;;;-1.60;85.68;100179.97;5027531;28;20057;-77
2022/11/20 09:29:46;;;;;;;1999.90;999.90;;;;;;;-1.57;85.88;100175.81;5025463;28;20029;-77
2022/11/20 09:32:12;;;;;;;1999.90;999.90;;;;;;;-1.53;85.83;100179.38;5029730;28;20038;-77
2022/11/20 09:34:37;;;;;;;1999.90;999.90;;;;;;;-1.51;85.93;100169.09;5027502;28;20037;-77
2022/11/20 09:37:02;;;;;;;1999.90;999.90;;;;;;;-1.47;85.55;100166.66;5023070;28;20033;-77
2022/11/20 09:39:28;;;;;;;1999.90;999.90;;;;;;;-1.45;86.08;100156.38;5022795;28;20069;-77
2022/11/20 09:42:13;;;;;;;1999.90;999.90;;;;;;;-1.39;85.86;100156.56;5024497;28;20547;-77
2022/11/20 09:44:48;;;;;;;1999.90;999.90;;;;;;;-1.35;86.64;100151.56;5029529;28;20039;-77
2022/11/20 09:47:37;;;;;;;1999.90;999.90;;;;;;;-1.20;86.46;100148.66;5026990;28;20091;-77
2022/11/20 09:50:24;;;;;;;1999.90;999.90;;;;;;;-1.06;86.46;100148.25;5025192;28;20165;-77
2022/11/20 09:53:10;;;;;;;1999.90;999.90;;;;;;;-0.97;86.26;100149.44;5026878;28;20033;-77
2022/11/20 09:55:37;;;;;;;1999.90;999.90;;;;;;;-1.01;84.91;100138.91;5027037;28;20037;-77
2022/11/20 09:58:07;;;;;;;1999.90;999.90;;;;;;;-0.94;85.07;100139.19;5028639;28;20178;-77
2022/11/20 10:00:35;;;;;;;1999.90;999.90;;;;;;;-0.92;84.83;100134.94;5027995;28;20029;-77
2022/11/20 10:03:36;;;;;;;1999.90;999.90;;;;;;;-0.83;85.01;100136.06;5026280;28;20041;-77
2022/11/20 10:06:03;;;;;;;1999.90;999.90;;;;;;;-0.79;85.34;100133.59;5027984;28;20041;-77
2022/11/20 10:08:40;;;;;;;1999.90;999.90;;;;;;;-0.78;84.74;100129.34;5030385;28;20116;-77
2022/11/20 10:11:28;;;;;;;1999.90;999.90;;;;;;;-0.71;84.63;100115.72;5025901;28;20519;-77
2022/11/20 10:14:12;;;;;;;1999.90;999.90;;;;;;;-0.68;84.84;100113.25;5025660;28;20504;-77
2022/11/20 10:17:03;;;;;;;1999.90;999.90;;;;;;;-0.72;84.11;100113.97;5027611;28;20380;-77
2022/11/20 10:19:54;;;;;;;1999.90;999.90;;;;;;;-0.78;83.29;100108.59;5030031;28;20484;-77
2022/11/20 10:22:35;;;;;;;1999.90;999.90;;;;;;;-0.75;84.29;100106.97;5034422;28;20044;-77
2022/11/20 10:25:13;;;;;;;1999.90;999.90;;;;;;;-0.64;85.14;100102.13;5031662;28;20705;-77
2022/11/20 10:27:51;;;;;;;1999.90;999.90;;;;;;;-0.58;84.50;100102.31;5025174;28;20025;-76
2022/11/20 10:30:19;;;;;;;1999.90;999.90;;;;;;;-0.54;84.21;100104.19;5021626;28;20476;-77
2022/11/20 10:33:12;;;;;;;1999.90;999.90;;;;;;;-0.49;83.47;100091.38;5028155;28;20052;-77
2022/11/20 10:36:15;;;;;;;1999.90;999.90;;;;;;;-0.38;84.14;100095.19;5024878;28;20067;-77
2022/11/20 10:38:56;;;;;;;1999.90;999.90;;;;;;;-0.37;83.02;100093.47;5006775;28;20057;-77
2022/11/20 10:41:34;;;;;;;1999.90;999.90;;;;;;;-0.34;83.53;100093.53;5024070;28;20419;-78
2022/11/20 10:44:11;;;;;;;1999.90;999.90;;;;;;;-0.32;83.17;100094.47;5021476;28;20084;-77
2022/11/20 10:46:42;;;;;;;1999.90;999.90;;;;;;;-0.42;83.04;100095.03;5021734;28;20029;-78
2022/11/20 10:49:19;;;;;;;1999.90;999.90;;;;;;;-0.29;83.50;100086.78;5025129;28;20068;-78
2022/11/20 10:51:45;;;;;;;1999.90;999.90;;;;;;;-0.21;83.84;100085.31;5026824;28;20044;-77
2022/11/20 10:54:21;;;;;;;1999.90;999.90;;;;;;;-0.12;83.52;100085.59;5027703;28;20051;-78
2022/11/20 10:56:52;;;;;;;1999.90;999.90;;;;;;;-0.16;83.90;100078.53;5020635;28;20061;-78